createdAt,value
2019-06-27T00:03:11.619Z,99513.88
2019-06-27T00:06:26.564Z,99503.76
2019-06-27T00:09:42.852Z,99500.61
2019-06-27T00:12:57.858Z,99496.84
2019-06-27T00:16:12.950Z,99501.48
2019-06-27T00:19:28.873Z,99503.27
2019-06-27T00:22:43.651Z,99501.72
2019-06-27T00:25:59.067Z,99503.74
2019-06-27T00:29:13.723Z,99507.56
2019-06-27T00:32:28.478Z,99512.56
2019-06-27T00:35:43.616Z,99513.27
2019-06-27T00:38:58.434Z,99513.52
2019-06-27T00:42:13.803Z,99515.53
2019-06-27T00:45:28.758Z,99526.60
2019-06-27T00:48:45.137Z,99525.89
2019-06-27T00:52:00.268Z,99522.91
2019-06-27T00:55:15.621Z,99527.53
2019-06-27T00:58:30.693Z,99529.61
2019-06-27T01:01:45.642Z,99531.00
2019-06-27T01:05:00.499Z,99529.34
2019-06-27T01:08:15.347Z,99530.64
2019-06-27T01:11:30.653Z,99529.69
2019-06-27T01:14:46.709Z,99530.81
2019-06-27T01:18:01.348Z,99528.36
2019-06-27T01:21:17.343Z,99532.52
2019-06-27T01:24:32.781Z,99537.53
2019-06-27T01:27:47.749Z,99541.38
2019-06-27T01:31:02.579Z,99543.73
2019-06-27T01:34:17.660Z,99541.65
2019-06-27T01:37:32.983Z,99536.22
2019-06-27T01:40:49.263Z,99540.15
2019-06-27T01:44:06.868Z,99534.30
2019-06-27T01:47:22.327Z,99538.45
2019-06-27T01:50:37.584Z,99535.69
2019-06-27T01:53:53.642Z,99535.22
2019-06-27T01:57:09.489Z,99538.41
2019-06-27T02:00:24.890Z,99537.25
2019-06-27T02:03:39.749Z,99536.58
2019-06-27T02:06:55.479Z,99543.72
2019-06-27T02:10:10.626Z,99548.83
2019-06-27T02:13:25.396Z,99549.72
2019-06-27T02:16:40.383Z,99541.88
2019-06-27T02:19:56.221Z,99556.25
2019-06-27T02:23:11.230Z,99549.63
2019-06-27T02:26:26.686Z,99553.98
2019-06-27T02:29:41.646Z,99549.73
2019-06-27T02:32:56.695Z,99548.22
2019-06-27T02:36:12.035Z,99544.17
2019-06-27T02:39:27.172Z,99546.41
2019-06-27T02:42:42.435Z,99547.25
2019-06-27T02:45:57.780Z,99547.09
2019-06-27T02:49:12.845Z,99553.47
2019-06-27T02:52:27.773Z,99549.08
2019-06-27T02:55:42.636Z,99547.14
2019-06-27T02:58:57.482Z,99550.94
2019-06-27T03:02:12.701Z,99547.28
2019-06-27T03:05:27.558Z,99546.39
2019-06-27T03:08:43.225Z,99559.45
2019-06-27T03:12:00.528Z,99549.84
2019-06-27T03:15:16.161Z,99545.22
2019-06-27T03:18:32.460Z,99543.58
2019-06-27T03:21:47.351Z,99546.52
2019-06-27T03:25:02.761Z,99547.49
2019-06-27T03:28:17.759Z,99550.86
2019-06-27T03:31:32.933Z,99547.15
2019-06-27T03:34:47.639Z,99557.98
2019-06-27T03:38:02.449Z,99552.84
2019-06-27T03:41:17.192Z,99552.76
2019-06-27T03:44:32.797Z,99557.38
2019-06-27T03:47:48.480Z,99560.66
2019-06-27T03:51:03.442Z,99552.50
2019-06-27T03:54:18.516Z,99561.64
2019-06-27T03:57:33.311Z,99564.24
2019-06-27T04:00:49.843Z,99566.10
2019-06-27T04:04:05.682Z,99566.19
2019-06-27T04:07:20.414Z,99566.02
2019-06-27T04:10:35.020Z,99564.08
2019-06-27T04:13:52.031Z,99566.14
2019-06-27T04:17:07.734Z,99563.95
2019-06-27T04:20:22.865Z,99563.28
2019-06-27T04:23:38.301Z,99566.86
2019-06-27T04:26:54.787Z,99572.30
2019-06-27T04:30:10.152Z,99576.42
2019-06-27T04:33:26.607Z,99576.89
2019-06-27T04:36:42.190Z,99586.16
2019-06-27T04:39:58.446Z,99592.36
2019-06-27T04:43:13.940Z,99587.30
2019-06-27T04:46:28.594Z,99589.57
2019-06-27T04:49:44.327Z,99593.62
2019-06-27T04:53:00.695Z,99588.81
2019-06-27T04:56:16.571Z,99598.64
2019-06-27T04:59:51.510Z,99587.02
2019-06-27T05:02:49.459Z,99595.14
2019-06-27T05:06:04.266Z,99596.44
2019-06-27T05:09:20.046Z,99611.61
2019-06-27T05:16:49.882Z,99608.80
2019-06-27T05:20:04.729Z,99612.56
2019-06-27T05:23:19.589Z,99613.13
2019-06-27T05:26:34.743Z,99612.70
2019-06-27T05:29:49.858Z,99618.83
2019-06-27T05:33:04.505Z,99617.96
2019-06-27T05:36:20.999Z,99614.01
2019-06-27T05:39:35.810Z,99614.44
2019-06-27T05:42:51.198Z,99614.63
2019-06-27T05:46:06.988Z,99621.40
2019-06-27T05:49:21.766Z,99623.86
2019-06-27T05:52:37.270Z,99625.82
2019-06-27T05:55:52.453Z,99628.40
2019-06-27T05:59:08.322Z,99630.73
2019-06-27T06:02:22.900Z,99626.03
2019-06-27T06:05:39.450Z,99623.14
2019-06-27T06:08:54.553Z,99626.59
2019-06-27T06:12:10.513Z,99625.70
2019-06-27T06:15:25.971Z,99621.50
2019-06-27T06:18:41.729Z,99632.97
2019-06-27T06:21:56.567Z,99624.73
2019-06-27T06:25:12.209Z,99623.67
2019-06-27T06:28:28.310Z,99631.64
2019-06-27T06:31:44.897Z,99630.58
2019-06-27T06:35:01.324Z,99628.31
2019-06-27T06:38:17.409Z,99632.09
2019-06-27T06:41:32.354Z,99636.97
2019-06-27T06:44:48.458Z,99640.91
2019-06-27T06:48:04.843Z,99636.00
2019-06-27T06:51:20.105Z,99634.15
2019-06-27T06:54:34.844Z,99636.36
2019-06-27T06:57:50.072Z,99637.11
2019-06-27T07:01:05.212Z,99632.70
2019-06-27T07:04:21.548Z,99638.80
2019-06-27T07:07:37.192Z,99630.73
2019-06-27T07:10:52.319Z,99629.11
2019-06-27T07:14:07.523Z,99637.05
2019-06-27T07:17:22.657Z,99647.49
2019-06-27T07:20:38.836Z,99648.31
2019-06-27T07:23:53.766Z,99642.17
2019-06-27T07:27:08.598Z,99638.05
2019-06-27T07:30:24.543Z,99642.66
2019-06-27T07:33:39.659Z,99631.31
2019-06-27T07:36:54.853Z,99633.23
2019-06-27T07:40:11.865Z,99638.74
2019-06-27T07:43:27.505Z,99639.31
2019-06-27T07:46:42.442Z,99641.02
2019-06-27T07:49:57.389Z,99634.98
2019-06-27T07:53:12.239Z,99646.45
2019-06-27T07:56:27.206Z,99643.39
2019-06-27T07:59:42.437Z,99650.61
2019-06-27T08:02:57.411Z,99641.55
2019-06-27T08:06:12.031Z,99644.88
2019-06-27T08:09:26.869Z,99645.99
2019-06-27T08:12:43.046Z,99641.95
2019-06-27T08:15:58.231Z,99642.25
2019-06-27T08:19:14.292Z,99641.69
2019-06-27T08:22:30.322Z,99638.22
2019-06-27T08:25:45.513Z,99640.67
2019-06-27T08:29:00.854Z,99635.47
2019-06-27T08:32:16.783Z,99628.62
2019-06-27T08:35:33.650Z,99627.05
2019-06-27T08:38:48.643Z,99624.89
2019-06-27T08:42:04.608Z,99620.87
2019-06-27T08:45:19.776Z,99625.77
2019-06-27T08:48:34.531Z,99630.42
2019-06-27T08:51:49.638Z,99626.69
2019-06-27T08:55:05.169Z,99621.92
2019-06-27T08:58:20.065Z,99628.67
2019-06-27T09:01:35.298Z,99628.67
2019-06-27T09:04:50.078Z,99606.04
2019-06-27T09:08:06.118Z,99606.04
2019-06-27T09:11:21.653Z,99627.39
2019-06-27T09:14:36.486Z,99621.88
2019-06-27T09:17:51.399Z,99627.83
2019-06-27T09:21:06.722Z,99617.51
2019-06-27T09:24:22.716Z,99624.80
2019-06-27T09:27:37.953Z,99626.41
2019-06-27T09:30:52.987Z,99627.33
2019-06-27T09:34:09.573Z,99631.00
2019-06-27T09:37:25.061Z,99634.63
2019-06-27T09:40:40.997Z,99615.22
2019-06-27T09:43:57.093Z,99632.42
2019-06-27T09:47:13.235Z,99626.95
2019-06-27T09:50:28.150Z,99627.67
2019-06-27T09:53:42.820Z,99637.53
2019-06-27T09:56:57.462Z,99629.26
2019-06-27T10:00:12.575Z,99631.00
2019-06-27T10:03:27.764Z,99624.52
2019-06-27T10:06:42.434Z,99632.60
2019-06-27T10:09:57.340Z,99624.53
2019-06-27T10:13:12.506Z,99618.48
2019-06-27T10:16:27.741Z,99616.75
2019-06-27T10:19:42.906Z,99619.51
2019-06-27T10:22:58.247Z,99617.48
2019-06-27T10:26:13.205Z,99614.88
2019-06-27T10:29:27.971Z,99606.63
2019-06-27T10:32:57.872Z,99608.69
2019-06-27T10:35:59.673Z,99597.00
2019-06-27T10:39:14.426Z,99606.23
2019-06-27T10:42:31.143Z,99602.89
2019-06-27T10:45:46.937Z,99598.26
2019-06-27T10:49:05.228Z,99607.08
2019-06-27T10:52:20.430Z,99608.84
2019-06-27T10:55:36.854Z,99605.48
2019-06-27T10:58:52.758Z,99605.98
2019-06-27T11:02:08.048Z,99605.98
2019-06-27T11:05:22.878Z,99606.14
2019-06-27T11:08:37.639Z,99606.81
2019-06-27T11:11:52.916Z,99597.39
2019-06-27T11:15:11.407Z,99589.17
2019-06-27T11:18:27.704Z,99586.52
2019-06-27T11:21:43.319Z,99571.55
2019-06-27T11:24:58.201Z,99581.97
2019-06-27T11:28:13.008Z,99583.84
2019-06-27T11:31:27.980Z,99580.50
2019-06-27T11:34:43.569Z,99577.47
2019-06-27T11:37:58.400Z,99574.91
2019-06-27T11:41:13.292Z,99575.80
2019-06-27T11:44:28.168Z,99569.69
2019-06-27T11:47:43.103Z,99565.38
2019-06-27T11:50:59.745Z,99564.14
2019-06-27T11:54:15.271Z,99563.55
2019-06-27T11:57:30.205Z,99556.48
2019-06-27T12:00:45.865Z,99557.08
2019-06-27T12:04:00.909Z,99557.45
2019-06-27T12:07:16.302Z,99543.80
2019-06-27T12:10:32.232Z,99557.08
2019-06-27T12:16:49.971Z,99539.05
2019-06-27T12:20:06.331Z,99543.98
2019-06-27T12:23:21.359Z,99535.67
2019-06-27T12:26:37.034Z,99526.84
2019-06-27T12:29:52.291Z,99525.50
2019-06-27T12:33:07.018Z,99526.83
2019-06-27T12:36:22.068Z,99522.42
2019-06-27T12:39:37.485Z,99515.83
2019-06-27T12:42:52.431Z,99508.30
2019-06-27T12:46:07.647Z,99513.62
2019-06-27T12:49:22.502Z,99511.84
2019-06-27T12:52:38.551Z,99510.50
2019-06-27T12:55:53.727Z,99508.75
2019-06-27T12:59:09.007Z,99508.31
2019-06-27T13:02:24.028Z,99513.64
2019-06-27T13:05:38.947Z,99507.44
2019-06-27T13:08:54.361Z,99498.55
2019-06-27T13:12:10.158Z,99496.77
2019-06-27T13:15:25.190Z,99495.00
2019-06-27T13:18:40.800Z,99495.00
2019-06-27T13:21:55.675Z,99499.44
2019-06-27T13:25:11.065Z,99484.78
2019-06-27T13:28:26.212Z,99485.23
2019-06-27T13:31:41.878Z,99488.78
2019-06-27T13:34:56.983Z,99491.00
2019-06-27T13:38:13.495Z,99481.63
2019-06-27T13:41:28.782Z,99481.16
2019-06-27T13:44:45.022Z,99478.92
2019-06-27T13:48:00.704Z,99486.47
2019-06-27T13:51:16.184Z,99466.98
2019-06-27T13:54:31.549Z,99467.87
2019-06-27T13:57:46.468Z,99458.50
2019-06-27T14:01:01.546Z,99460.24
2019-06-27T14:04:17.558Z,99461.09
2019-06-27T14:07:33.563Z,99455.72
2019-06-27T14:10:49.456Z,99448.64
2019-06-27T14:14:04.496Z,99445.16
2019-06-27T14:17:19.369Z,99440.23
2019-06-27T14:20:42.947Z,99443.31
2019-06-27T14:23:57.991Z,99444.28
2019-06-27T14:27:13.357Z,99440.70
2019-06-27T14:30:29.398Z,99438.88
2019-06-27T14:33:44.781Z,99436.09
2019-06-27T14:36:59.918Z,99429.72
2019-06-27T14:40:15.539Z,99429.69
2019-06-27T14:43:51.277Z,99425.16
2019-06-27T14:47:15.211Z,99422.83
2019-06-27T14:50:35.739Z,99418.78
2019-06-27T14:53:57.389Z,99421.53
2019-06-27T14:57:16.567Z,99412.43
2019-06-27T15:00:39.005Z,99418.33
2019-06-27T15:03:56.556Z,99424.57
2019-06-27T15:07:22.907Z,99415.20
2019-06-27T15:10:38.254Z,99417.50
2019-06-27T15:13:54.738Z,99413.49
2019-06-27T15:17:10.224Z,99408.25
2019-06-27T15:20:26.330Z,99414.23
2019-06-27T15:23:40.949Z,99410.08
2019-06-27T15:26:57.076Z,99397.50
2019-06-27T15:30:12.746Z,99408.02
2019-06-27T15:33:27.694Z,99406.27
2019-06-27T15:36:42.952Z,99408.16
2019-06-27T15:39:57.857Z,99407.25
2019-06-27T15:43:13.759Z,99405.63
2019-06-27T15:46:28.715Z,99404.25
2019-06-27T15:49:43.980Z,99405.63
2019-06-27T15:53:00.256Z,99403.80
2019-06-27T15:56:15.457Z,99405.50
2019-06-27T15:59:30.143Z,99404.91
2019-06-27T16:02:45.435Z,99403.56
2019-06-27T16:06:09.076Z,99401.35
2019-06-27T16:09:17.860Z,99391.45
2019-06-27T16:12:33.519Z,99392.08
2019-06-27T16:15:48.489Z,99401.87
2019-06-27T16:19:08.041Z,99397.05
2019-06-27T16:22:23.772Z,99394.79
2019-06-27T16:25:39.104Z,99393.13
2019-06-27T16:28:55.373Z,99396.26
2019-06-27T16:32:10.940Z,99390.30
2019-06-27T16:35:25.882Z,99401.46
2019-06-27T16:38:41.923Z,99403.00
2019-06-27T16:41:56.753Z,99397.86
2019-06-27T16:45:12.510Z,99396.08
2019-06-27T16:48:27.738Z,99396.15
2019-06-27T16:51:44.338Z,99391.66
2019-06-27T16:54:59.574Z,99386.41
2019-06-27T16:58:14.618Z,99392.16
2019-06-27T17:01:30.847Z,99400.11
2019-06-27T17:04:45.900Z,99401.47
2019-06-27T17:08:01.573Z,99399.81
2019-06-27T17:11:18.819Z,99397.58
2019-06-27T17:14:34.064Z,99399.84
2019-06-27T17:17:50.086Z,99398.97
2019-06-27T17:21:05.162Z,99401.72
2019-06-27T17:24:21.425Z,99402.72
2019-06-27T17:27:36.414Z,99403.62
2019-06-27T17:30:51.450Z,99404.53
2019-06-27T17:34:06.698Z,99403.25
2019-06-27T17:37:22.228Z,99396.58
2019-06-27T17:40:37.652Z,99401.47
2019-06-27T17:43:52.860Z,99394.41
2019-06-27T17:47:08.539Z,99401.98
2019-06-27T17:50:24.763Z,99407.25
2019-06-27T17:53:39.945Z,99401.55
2019-06-27T17:56:54.887Z,99403.34
2019-06-27T18:00:11.128Z,99404.67
2019-06-27T18:03:27.238Z,99401.56
2019-06-27T18:06:42.076Z,99406.45
2019-06-27T18:09:57.717Z,99407.76
2019-06-27T18:13:12.866Z,99404.66
2019-06-27T18:16:28.148Z,99403.78
2019-06-27T18:19:43.541Z,99403.80
2019-06-27T18:22:58.433Z,99403.28
2019-06-27T18:26:15.006Z,99403.68
2019-06-27T18:29:29.863Z,99401.87
2019-06-27T18:32:44.596Z,99405.25
2019-06-27T18:36:03.018Z,99409.39
2019-06-27T18:39:16.850Z,99410.39
2019-06-27T18:42:31.561Z,99413.45
2019-06-27T18:45:46.434Z,99413.07
2019-06-27T18:49:01.891Z,99415.76
2019-06-27T18:52:16.711Z,99418.02
2019-06-27T18:55:31.719Z,99417.65
2019-06-27T18:58:47.441Z,99423.92
2019-06-27T19:02:03.689Z,99431.06
2019-06-27T19:05:18.783Z,99428.45
2019-06-27T19:08:34.838Z,99435.11
2019-06-27T19:11:50.311Z,99434.19
2019-06-27T19:15:06.038Z,99445.19
2019-06-27T19:18:43.816Z,99445.19
2019-06-27T19:22:22.909Z,99453.09
2019-06-27T19:25:38.764Z,99455.68
2019-06-27T19:28:55.044Z,99454.63
2019-06-27T19:32:10.709Z,99457.66
2019-06-27T19:35:25.382Z,99463.48
2019-06-27T19:38:41.325Z,99468.82
2019-06-27T19:41:57.267Z,99469.33
2019-06-27T19:45:13.779Z,99470.92
2019-06-27T19:48:28.731Z,99483.40
2019-06-27T19:51:43.363Z,99492.59
2019-06-27T19:54:59.229Z,99494.23
2019-06-27T19:58:14.189Z,99498.39
2019-06-27T20:01:30.731Z,99504.14
2019-06-27T20:04:45.279Z,99507.78
2019-06-27T20:08:17.477Z,99512.64
2019-06-27T20:11:18.186Z,99509.62
2019-06-27T20:14:33.134Z,99520.09
2019-06-27T20:17:49.137Z,99522.90
2019-06-27T20:21:04.007Z,99532.66
2019-06-27T20:24:21.767Z,99530.33
2019-06-27T20:27:36.473Z,99536.36
2019-06-27T20:30:51.449Z,99531.67
2019-06-27T20:34:06.310Z,99540.77
2019-06-27T20:37:22.708Z,99542.91
2019-06-27T20:40:38.075Z,99542.65
2019-06-27T20:43:53.273Z,99548.24
2019-06-27T20:47:08.316Z,99553.15
2019-06-27T20:50:23.643Z,99556.26
2019-06-27T20:53:39.073Z,99554.31
2019-06-27T20:56:54.854Z,99560.23
2019-06-27T21:00:10.353Z,99562.66
2019-06-27T21:03:25.947Z,99567.31
2019-06-27T21:06:41.105Z,99559.87
2019-06-27T21:09:56.262Z,99560.30
2019-06-27T21:16:50.197Z,99563.70
2019-06-27T21:20:05.666Z,99573.75
2019-06-27T21:23:20.880Z,99574.19
2019-06-27T21:26:36.070Z,99575.07
2019-06-27T21:29:50.716Z,99576.86
2019-06-27T21:33:06.532Z,99575.86
2019-06-27T21:36:22.060Z,99577.86
2019-06-27T21:39:37.093Z,99587.34
2019-06-27T21:42:52.250Z,99589.44
2019-06-27T21:46:07.392Z,99588.65
2019-06-27T21:49:22.140Z,99590.42
2019-06-27T21:52:38.296Z,99588.17
2019-06-27T21:55:53.028Z,99591.55
2019-06-27T21:59:09.488Z,99592.14
2019-06-27T22:02:24.272Z,99589.77
2019-06-27T22:05:39.709Z,99590.10
2019-06-27T22:08:57.290Z,99585.04
2019-06-27T22:12:13.486Z,99591.05
2019-06-27T22:15:28.459Z,99592.17
2019-06-27T22:18:43.376Z,99590.55
2019-06-27T22:21:59.577Z,99593.70
2019-06-27T22:25:14.583Z,99587.69
2019-06-27T22:28:30.983Z,99590.91
2019-06-27T22:31:46.007Z,99593.14
2019-06-27T22:35:00.752Z,99593.41
2019-06-27T22:38:32.628Z,99596.16
2019-06-27T22:42:04.659Z,99592.71
2019-06-27T22:45:37.016Z,99599.52
2019-06-27T22:48:51.518Z,99590.47
2019-06-27T22:52:31.486Z,99590.65
2019-06-27T22:55:46.793Z,99590.75
2019-06-27T22:59:02.175Z,99593.87
2019-06-27T23:02:18.476Z,99593.53
2019-06-27T23:05:33.337Z,99588.91
2019-06-27T23:08:48.290Z,99590.23
2019-06-27T23:12:03.830Z,99592.35
2019-06-27T23:15:19.414Z,99591.11
2019-06-27T23:18:35.555Z,99591.73
2019-06-27T23:21:50.195Z,99590.28
2019-06-27T23:25:05.194Z,99581.41
2019-06-27T23:28:20.227Z,99587.13
2019-06-27T23:31:36.081Z,99590.20
2019-06-27T23:34:51.752Z,99592.91
2019-06-27T23:38:06.893Z,99590.31
2019-06-27T23:41:21.921Z,99587.92
2019-06-27T23:44:36.676Z,99590.06
2019-06-27T23:47:51.614Z,99588.79
2019-06-27T23:51:06.760Z,99587.72
2019-06-27T23:54:24.398Z,99581.77
2019-06-27T23:57:48.710Z,99579.73
